Aqaba, Jordan

7:26 PM EEST on August 02, 2015 (GMT +0300)
Aqaba International | | Change Station
CLOSE
Current Station
Airport
Location: Aqaba,
Elevation: 174 ft
Nearby Weather Stations

Elev 174 ft 29.61 °N, 35.02 °E | Updated 26 minutes ago

Scattered Clouds
Scattered Clouds
113 °F
Feels Like 125 °F
N
0
Wind Variable Wind from North

Today
High -- | Low -- °F
--% Chance of Precip.
Yesterday
High -- | Low -- °F
Precip. -- in
5:59 AM 7:32 PM
Waning Gibbous, 93% visible
Pressure 29.62 in
Visibility 4.3 miles
Clouds Scattered Clouds 20000 ft
Heat Index 125 °F
Dew Point 72 °F
Humidity 27%
Rainfall 0.00 in
Snow Depth Not available.
UV 0 out of 12
Pollen Not available.
Air Quality Not available.
Flu Activity Not available.
METAR OJAQ 021600Z 00000KT 7000 SCT200 45/22 Q1003 NOSIG

More Conditions Fewer Conditions

Pressure 29.62 in
Visibility 4.3 miles
Clouds Scattered Clouds 20000 ft
Heat Index 125 °F
Dew Point 72 °F
Humidity 27%
Rainfall 0.00 in
Snow Depth Not available.
UV 0 out of 12
Pollen Not available.
Air Quality Not available.
Flu Activity Not available.
METAR OJAQ 021600Z 00000KT 7000 SCT200 45/22 Q1003 NOSIG

More Conditions Fewer Conditions

10-Day Weather Forecast

×

Almanac

Astronomy

Aug. 02, 2015 Rise Set
Actual Time
Civil Twilight
Nautical Twilight
Astronomical Twilight
Moon
Length of Visible Light
Length of Day
Tomorrow will be .
, % of the Moon is Illuminated

Today's Extremes

Country Highs Country Lows

Community

WunderPhotos

Upload Photos

1,843,300 photos uploaded!

WunderBlogs® & News

Nearby

Air Quality

  Air Quality AQ Index Pollutant
Not available.

Snow Depth

Station Depth Elevation

Earthquake Activity

City Distance Mag. Time & Date
Minimum magnitude displayed is 2.5.

Coastal Water Temperatures

Place Temperature

Stations

Nearby Weather Stations

Station Location Temp. Windchill Dew Point Humidity Wind Precip. Elev Updated Type